Terminal Aerodrome Forecast
Issued by NWS Duluth, MN

Home | Current Version | Previous Version | Text Only | Print | Product List | Glossary On
Versions: 1 2 3 4 5 6 7 8 9 10 11 12 13 14
000
FTUS43 KDLH 311100
TAFDLH
TAF
KDLH 311133Z 3112/0112 10007KT P6SM SCT150
     FM311900 10014KT P6SM SCT150
     FM010400 09005KT P6SM SCT150=

USA.gov is the U.S. government's official web portal to all federal, state and local government web resources and services.